Time;durP1;ratioP1;P1;durP2;ratioP2;P2;SDS_P1;SDS_P2;PMS_P1;PMS_P2;Temp;Humidity;BMP_temperature;BMP_pressure;BME280_temperature;BME280_humidity;BME280_pressure;Samples;Min_cycle;Max_cycle;Signal;HPM_P1;HPM_P2
2023/12/18 00:00:13;;;;;;;25.50;8.13;;;8.70;99.90;;;;;;5176265;27;20424;-85
2023/12/18 00:02:39;;;;;;;21.23;6.80;;;8.30;99.90;;;;;;5176216;27;20383;-85
2023/12/18 00:05:06;;;;;;;26.45;6.40;;;7.50;99.90;;;;;;5156467;27;20050;-85
2023/12/18 00:07:31;;;;;;;21.13;6.55;;;8.20;99.90;;;;;;5175498;27;20045;-85
2023/12/18 00:09:57;;;;;;;24.25;7.13;;;8.90;99.90;;;;;;5157191;27;20042;-84
2023/12/18 00:12:23;;;;;;;21.80;7.35;;;8.40;99.90;;;;;;5156624;27;20383;-85
2023/12/18 00:14:48;;;;;;;25.00;8.35;;;8.40;99.90;;;;;;5156557;27;20038;-85
2023/12/18 00:17:14;;;;;;;20.92;7.35;;;8.80;99.90;;;;;;5156695;27;20034;-85
2023/12/18 00:19:40;;;;;;;25.08;8.82;;;8.20;99.90;;;;;;5156803;27;20042;-85
2023/12/18 00:22:05;;;;;;;18.67;7.70;;;8.20;99.90;;;;;;5157417;27;20046;-85
2023/12/18 00:24:31;;;;;;;30.85;7.40;;;8.60;99.90;;;;;;5156969;27;20038;-85
2023/12/18 00:26:57;;;;;;;19.73;6.82;;;8.70;99.90;;;;;;5156435;27;20109;-85
2023/12/18 00:29:23;;;;;;;24.90;7.18;;;8.10;99.90;;;;;;5156490;27;20057;-84
2023/12/18 00:31:48;;;;;;;17.30;7.60;;;8.20;99.90;;;;;;5175462;27;20042;-84
2023/12/18 00:34:14;;;;;;;23.50;7.95;;;8.30;99.90;;;;;;5156024;27;20124;-85
2023/12/18 00:36:40;;;;;;;18.20;6.78;;;8.10;99.90;;;;;;5174848;27;20547;-84
2023/12/18 00:39:06;;;;;;;26.48;8.43;;;8.10;99.90;;;;;;5175698;27;20090;-84
2023/12/18 00:41:32;;;;;;;17.23;7.82;;;8.30;99.90;;;;;;5156161;27;20106;-85
2023/12/18 00:43:58;;;;;;;19.10;7.68;;;8.10;99.90;;;;;;5156561;27;20110;-85
2023/12/18 00:46:25;;;;;;;18.50;8.00;;;8.50;99.90;;;;;;5156333;27;20519;-85
2023/12/18 00:48:51;;;;;;;23.77;8.05;;;8.60;99.90;;;;;;5174665;27;20030;-85
2023/12/18 00:51:17;;;;;;;24.77;8.15;;;8.10;99.90;;;;;;5175219;27;20057;-85
2023/12/18 00:53:43;;;;;;;32.42;8.60;;;8.50;99.90;;;;;;5156869;27;20109;-85
2023/12/18 00:56:09;;;;;;;25.65;7.68;;;8.70;99.90;;;;;;5156638;27;20046;-85
2023/12/18 00:58:35;;;;;;;23.67;7.38;;;8.50;99.90;;;;;;5156618;27;20482;-85
2023/12/18 01:01:01;;;;;;;19.45;7.72;;;8.80;99.90;;;;;;5175162;27;20034;-85
2023/12/18 01:03:27;;;;;;;22.70;7.70;;;8.30;99.90;;;;;;5174782;27;20057;-85
2023/12/18 01:05:53;;;;;;;22.52;7.18;;;8.10;99.90;;;;;;5156477;27;20104;-84
2023/12/18 01:08:19;;;;;;;22.38;7.20;;;8.10;99.90;;;;;;5155828;27;20138;-85
2023/12/18 01:10:44;;;;;;;18.77;7.30;;;8.00;99.90;;;;;;5156571;27;20050;-85
2023/12/18 01:13:10;;;;;;;21.42;7.32;;;8.80;99.90;;;;;;5139607;27;20168;-85
2023/12/18 01:15:36;;;;;;;22.85;7.93;;;8.60;99.90;;;;;;5156642;27;20482;-85
2023/12/18 01:18:02;;;;;;;20.17;7.10;;;8.00;99.90;;;;;;5175018;27;20045;-85
2023/12/18 01:20:27;;;;;;;19.27;7.22;;;8.00;99.90;;;;;;5175056;27;20453;-84
2023/12/18 01:22:53;;;;;;;19.48;6.85;;;8.60;99.90;;;;;;5156158;27;20106;-85
2023/12/18 01:25:19;;;;;;;20.10;6.85;;;8.70;99.90;;;;;;5155454;27;20040;-85
2023/12/18 01:27:44;;;;;;;27.73;6.43;;;8.70;99.90;;;;;;5174857;27;20130;-84
2023/12/18 01:30:10;;;;;;;17.55;6.70;;;8.60;99.90;;;;;;5156532;27;20063;-85
2023/12/18 01:32:36;;;;;;;21.23;7.38;;;8.10;99.90;;;;;;5174959;27;20040;-84
2023/12/18 01:35:02;;;;;;;16.98;7.10;;;8.60;99.90;;;;;;5174330;27;20111;-85
2023/12/18 01:37:28;;;;;;;16.52;6.88;;;8.10;99.90;;;;;;5156364;27;20034;-85
2023/12/18 01:39:53;;;;;;;19.02;6.50;;;8.10;99.90;;;;;;5155903;27;20530;-85
2023/12/18 01:42:19;;;;;;;21.77;7.15;;;8.40;99.90;;;;;;5174984;27;20049;-85
2023/12/18 01:44:45;;;;;;;24.25;6.95;;;8.70;99.90;;;;;;5155532;27;20049;-85
2023/12/18 01:47:12;;;;;;;21.80;6.50;;;8.60;99.90;;;;;;5174540;27;20133;-85
2023/12/18 01:49:37;;;;;;;18.65;5.55;;;8.10;99.90;;;;;;5174945;27;20038;-85
2023/12/18 01:52:04;;;;;;;17.85;5.80;;;8.80;99.90;;;;;;5155760;27;20229;-85
2023/12/18 01:54:31;;;;;;;17.33;5.07;;;8.10;99.90;;;;;;5175041;27;20091;-85
2023/12/18 01:56:58;;;;;;;15.02;5.60;;;8.60;99.90;;;;;;5155194;27;20042;-85
2023/12/18 01:59:24;;;;;;;17.67;5.20;;;8.20;99.90;;;;;;5154935;27;20035;-85
2023/12/18 02:01:51;;;;;;;15.40;5.63;;;8.70;99.90;;;;;;5156218;27;20386;-86
2023/12/18 02:04:18;;;;;;;15.35;5.25;;;8.90;99.90;;;;;;5156210;27;20042;-85
2023/12/18 02:06:45;;;;;;;17.13;4.72;;;8.60;99.90;;;;;;5138375;27;20111;-84
2023/12/18 02:09:11;;;;;;;22.65;5.28;;;8.80;99.90;;;;;;5173631;27;20230;-85
2023/12/18 02:11:37;;;;;;;19.15;4.75;;;8.40;99.90;;;;;;5156219;27;20448;-84
2023/12/18 02:14:04;;;;;;;21.08;5.10;;;8.50;99.90;;;;;;5156200;27;20371;-84
2023/12/18 02:16:30;;;;;;;27.38;5.63;;;8.30;99.90;;;;;;5174069;27;20038;-85
2023/12/18 02:18:56;;;;;;;19.55;5.47;;;8.20;99.90;;;;;;5155188;27;20039;-85
2023/12/18 02:21:21;;;;;;;20.35;4.93;;;8.40;99.90;;;;;;5157247;27;20405;-84
2023/12/18 02:23:48;;;;;;;19.75;5.20;;;8.30;99.90;;;;;;5178329;27;20038;-84
2023/12/18 02:26:16;;;;;;;22.05;4.35;;;8.70;99.90;;;;;;5178323;27;20043;-85
2023/12/18 02:28:44;;;;;;;19.10;6.55;;;8.50;99.90;;;;;;5141652;27;20085;-85
2023/12/18 02:31:13;;;;;;;28.33;5.80;;;8.40;99.90;;;;;;5177736;27;20045;-84
2023/12/18 02:33:39;;;;;;;17.70;3.95;;;8.30;99.90;;;;;;5159624;27;20454;-84
2023/12/18 02:36:05;;;;;;;18.48;4.50;;;8.30;99.90;;;;;;5141883;27;20074;-84
2023/12/18 02:38:31;;;;;;;17.40;3.42;;;8.30;99.90;;;;;;5177696;27;20383;-84
2023/12/18 02:40:56;;;;;;;18.88;4.00;;;8.90;99.90;;;;;;5158941;27;20121;-84
2023/12/18 02:43:22;;;;;;;18.98;4.35;;;8.80;99.90;;;;;;5141769;27;20049;-84
2023/12/18 02:45:48;;;;;;;13.55;3.78;;;8.90;99.90;;;;;;5158581;27;20406;-84
2023/12/18 02:48:13;;;;;;;13.18;3.70;;;9.00;99.90;;;;;;5158565;27;20094;-84
2023/12/18 02:50:39;;;;;;;16.52;4.32;;;8.40;99.90;;;;;;5176871;27;20046;-84
2023/12/18 02:53:05;;;;;;;13.95;3.75;;;8.40;99.90;;;;;;5158664;27;20389;-84
2023/12/18 02:55:30;;;;;;;11.95;4.28;;;8.70;99.90;;;;;;5158166;27;20083;-85
2023/12/18 02:57:56;;;;;;;18.10;4.90;;;9.00;99.90;;;;;;5158493;27;20392;-85
2023/12/18 03:00:22;;;;;;;17.73;4.35;;;8.40;99.90;;;;;;5140471;27;20046;-84
2023/12/18 03:02:47;;;;;;;14.30;3.80;;;8.90;99.90;;;;;;5158636;27;20090;-84
2023/12/18 03:05:14;;;;;;;14.93;4.18;;;8.50;99.90;;;;;;5177436;27;20034;-85
2023/12/18 03:07:40;;;;;;;19.13;3.95;;;8.40;99.90;;;;;;5158496;27;20086;-84
2023/12/18 03:10:06;;;;;;;13.40;3.55;;;8.90;99.90;;;;;;5157781;27;20058;-85
2023/12/18 03:12:32;;;;;;;13.40;3.55;;;8.40;99.90;;;;;;5177113;27;20390;-85
2023/12/18 03:14:57;;;;;;;11.75;3.80;;;8.50;99.90;;;;;;5158915;27;20030;-84
2023/12/18 03:17:23;;;;;;;13.88;3.53;;;9.10;99.90;;;;;;5158232;27;20054;-84
2023/12/18 03:19:49;;;;;;;17.45;3.60;;;8.80;99.90;;;;;;5157441;27;20470;-84
2023/12/18 03:22:14;;;;;;;10.35;3.13;;;8.50;99.90;;;;;;5140583;27;20057;-84
2023/12/18 03:24:42;;;;;;;14.52;3.35;;;8.90;99.90;;;;;;5176780;27;20074;-85
2023/12/18 03:27:08;;;;;;;12.25;3.20;;;8.40;99.90;;;;;;5177109;27;20061;-85
2023/12/18 03:29:34;;;;;;;19.08;3.83;;;8.40;99.90;;;;;;5176445;27;20516;-85
2023/12/18 03:32:00;;;;;;;15.15;3.17;;;8.90;99.90;;;;;;5176257;27;20138;-85
2023/12/18 03:34:26;;;;;;;17.92;3.88;;;9.00;99.90;;;;;;5157635;27;20038;-84
2023/12/18 03:36:52;;;;;;;15.90;3.85;;;8.90;99.90;;;;;;5176414;27;20042;-85
2023/12/18 03:39:17;;;;;;;17.92;4.15;;;9.00;99.90;;;;;;5157989;27;20038;-85
2023/12/18 03:41:43;;;;;;;22.05;4.10;;;8.70;99.90;;;;;;5175370;27;20034;-85
2023/12/18 03:44:09;;;;;;;16.45;3.03;;;8.90;99.90;;;;;;5157743;27;20095;-84
2023/12/18 03:46:34;;;;;;;15.95;3.33;;;8.50;99.90;;;;;;5158055;27;20073;-85
2023/12/18 03:49:00;;;;;;;20.33;3.20;;;8.70;99.90;;;;;;5157339;27;20501;-85
2023/12/18 03:51:26;;;;;;;19.55;3.38;;;9.10;99.90;;;;;;5175719;27;20026;-85
2023/12/18 03:53:52;;;;;;;9.68;3.03;;;9.00;99.90;;;;;;5176000;27;20498;-85
2023/12/18 03:56:17;;;;;;;19.77;3.10;;;8.60;99.90;;;;;;5140339;27;20038;-85
2023/12/18 03:58:43;;;;;;;16.05;4.20;;;8.60;99.90;;;;;;5157210;27;20517;-85
2023/12/18 04:01:09;;;;;;;21.50;4.10;;;8.50;99.90;;;;;;5139886;27;20131;-85
2023/12/18 04:03:34;;;;;;;14.63;4.00;;;8.60;99.90;;;;;;5156889;27;20049;-85
2023/12/18 04:06:01;;;;;;;19.55;4.57;;;8.70;99.90;;;;;;5176043;27;20042;-84
2023/12/18 04:08:27;;;;;;;19.55;4.65;;;8.50;99.90;;;;;;5157101;27;20134;-85
2023/12/18 04:10:52;;;;;;;17.23;4.45;;;8.50;99.90;;;;;;5175650;27;20465;-85
2023/12/18 04:13:18;;;;;;;14.35;4.00;;;8.50;99.90;;;;;;5156898;27;20053;-84
2023/12/18 04:15:44;;;;;;;20.60;5.03;;;8.50;99.90;;;;;;5156854;27;20049;-85
2023/12/18 04:18:10;;;;;;;15.27;5.13;;;8.50;99.90;;;;;;5156825;27;20049;-84
2023/12/18 04:20:35;;;;;;;14.57;5.60;;;8.90;99.90;;;;;;5157160;27;20048;-85
2023/12/18 04:23:01;;;;;;;18.58;5.60;;;9.20;99.90;;;;;;5175435;27;20037;-85
2023/12/18 04:25:27;;;;;;;20.20;4.57;;;8.50;99.90;;;;;;5157157;27;20038;-84
2023/12/18 04:27:53;;;;;;;23.67;5.90;;;8.50;99.90;;;;;;5156717;27;20035;-85
2023/12/18 04:30:18;;;;;;;19.25;5.45;;;8.30;99.90;;;;;;5157185;27;20450;-84
2023/12/18 04:32:44;;;;;;;23.50;5.53;;;8.40;99.90;;;;;;5156322;27;20034;-85
2023/12/18 04:35:10;;;;;;;17.85;5.13;;;8.40;99.90;;;;;;5139299;27;20406;-85
2023/12/18 04:37:35;;;;;;;20.98;5.63;;;9.10;99.90;;;;;;5139772;27;20066;-84
2023/12/18 04:40:03;;;;;;;19.73;5.82;;;9.00;99.90;;;;;;5157123;27;20038;-85
2023/12/18 04:42:29;;;;;;;32.13;5.78;;;8.40;99.90;;;;;;5156553;27;20038;-84
2023/12/18 04:44:55;;;;;;;17.35;5.63;;;8.40;99.90;;;;;;5156171;27;20126;-85
2023/12/18 04:47:21;;;;;;;20.00;5.00;;;8.60;99.90;;;;;;5175432;27;20121;-84
2023/12/18 04:49:47;;;;;;;20.63;5.60;;;8.40;99.90;;;;;;5175419;27;20121;-85
2023/12/18 04:52:13;;;;;;;24.20;5.70;;;8.70;99.90;;;;;;5175500;27;20054;-85
2023/12/18 04:54:38;;;;;;;19.75;4.70;;;8.40;99.90;;;;;;5175440;27;20048;-85
2023/12/18 04:57:04;;;;;;;19.05;4.93;;;8.40;99.90;;;;;;5174864;27;20042;-84
2023/12/18 04:59:30;;;;;;;22.02;4.88;;;9.00;99.90;;;;;;5156498;27;20038;-84
2023/12/18 05:01:56;;;;;;;22.63;5.28;;;9.00;99.90;;;;;;5175207;27;20086;-84
2023/12/18 05:04:23;;;;;;;24.73;5.00;;;9.00;99.90;;;;;;5175270;27;20090;-84
2023/12/18 05:06:49;;;;;;;22.10;5.03;;;8.80;99.90;;;;;;5155589;27;20443;-84
2023/12/18 05:09:15;;;;;;;20.48;5.28;;;8.40;99.90;;;;;;5174960;27;20090;-85
2023/12/18 05:11:41;;;;;;;22.10;5.43;;;8.40;99.90;;;;;;5156528;27;20038;-84
2023/12/18 05:14:08;;;;;;;22.20;5.70;;;9.00;99.90;;;;;;5156432;27;20175;-84
2023/12/18 05:16:34;;;;;;;13.55;5.10;;;8.40;99.90;;;;;;5174420;27;20065;-84
2023/12/18 05:19:00;;;;;;;25.83;5.80;;;8.80;99.90;;;;;;5173953;27;20085;-85
2023/12/18 05:21:25;;;;;;;22.55;5.80;;;8.40;99.90;;;;;;5175155;27;20075;-84
2023/12/18 05:23:51;;;;;;;18.13;5.50;;;8.70;99.90;;;;;;5174610;27;20478;-85
2023/12/18 05:26:17;;;;;;;21.95;6.03;;;8.70;99.90;;;;;;5155923;27;20664;-84
2023/12/18 05:28:43;;;;;;;20.83;5.45;;;9.10;99.90;;;;;;5174880;27;20034;-85
2023/12/18 05:31:09;;;;;;;20.02;5.97;;;8.80;99.90;;;;;;5155579;27;20050;-85
2023/12/18 05:33:35;;;;;;;13.82;5.28;;;8.90;99.90;;;;;;5156010;27;20038;-85
2023/12/18 05:36:01;;;;;;;19.83;6.32;;;8.40;99.90;;;;;;5138815;27;20042;-84
2023/12/18 05:38:27;;;;;;;24.33;5.63;;;8.40;99.90;;;;;;5174991;27;20047;-85
2023/12/18 05:40:52;;;;;;;16.40;5.97;;;8.50;99.90;;;;;;5174610;27;20467;-85
2023/12/18 05:43:18;;;;;;;23.15;6.57;;;8.40;99.90;;;;;;5155908;27;20106;-85
2023/12/18 05:45:44;;;;;;;18.38;5.90;;;8.60;99.90;;;;;;5175039;27;20038;-85
2023/12/18 05:48:09;;;;;;;19.40;6.10;;;8.90;99.90;;;;;;5155908;27;20125;-85
2023/12/18 05:50:35;;;;;;;22.80;7.13;;;8.40;99.90;;;;;;5174740;27;20419;-85
2023/12/18 05:53:01;;;;;;;29.25;6.63;;;8.90;99.90;;;;;;5155247;27;20086;-84
2023/12/18 05:55:26;;;;;;;25.30;7.00;;;8.80;99.90;;;;;;5176393;27;20390;-85
2023/12/18 05:57:52;;;;;;;24.48;5.70;;;8.80;99.90;;;;;;5178697;27;20054;-85
2023/12/18 06:00:19;;;;;;;12.45;5.43;;;8.90;99.90;;;;;;5159709;27;20038;-85
2023/12/18 06:02:45;;;;;;;19.17;6.30;;;8.40;99.90;;;;;;5159060;27;20050;-85
2023/12/18 06:05:11;;;;;;;19.15;6.00;;;8.80;99.90;;;;;;5141429;27;20113;-85
2023/12/18 06:07:36;;;;;;;21.52;6.55;;;8.70;99.90;;;;;;5142641;27;20046;-85
2023/12/18 06:10:03;;;;;;;25.27;6.20;;;9.00;99.90;;;;;;5159328;27;20054;-85
2023/12/18 06:12:29;;;;;;;17.35;5.55;;;8.40;99.90;;;;;;5178644;27;20042;-84
2023/12/18 06:14:54;;;;;;;18.88;6.82;;;8.40;99.90;;;;;;5159265;27;20478;-84
2023/12/18 06:17:20;;;;;;;19.98;6.75;;;8.80;99.90;;;;;;5159236;27;20065;-84
2023/12/18 06:19:47;;;;;;;15.77;5.95;;;9.00;99.90;;;;;;5159124;27;20035;-84
2023/12/18 06:22:13;;;;;;;24.45;6.65;;;8.90;99.90;;;;;;5177756;27;20030;-84
2023/12/18 06:24:39;;;;;;;26.75;7.28;;;8.80;99.90;;;;;;5159733;27;20049;-84
2023/12/18 06:27:05;;;;;;;24.20;6.40;;;8.50;99.90;;;;;;5159307;27;20394;-84
2023/12/18 06:29:31;;;;;;;19.08;7.22;;;8.70;99.90;;;;;;5159490;27;20038;-84
2023/12/18 06:31:57;;;;;;;23.48;6.38;;;8.50;99.90;;;;;;5159318;27;20114;-84
2023/12/18 06:34:23;;;;;;;21.30;7.28;;;8.50;99.90;;;;;;5159412;27;20444;-84
2023/12/18 06:36:49;;;;;;;26.05;7.70;;;8.50;99.90;;;;;;5177744;27;20042;-84
2023/12/18 06:39:15;;;;;;;21.35;6.95;;;8.40;99.90;;;;;;5158917;27;20483;-84
2023/12/18 06:41:40;;;;;;;19.80;7.22;;;9.10;99.90;;;;;;5159025;27;20082;-84
2023/12/18 06:44:06;;;;;;;25.92;8.15;;;9.40;99.90;;;;;;5141445;27;20042;-84
2023/12/18 06:46:33;;;;;;;22.95;7.80;;;9.20;99.90;;;;;;5177011;27;20043;-84
2023/12/18 06:49:01;;;;;;;23.67;7.85;;;9.00;99.90;;;;;;5159202;27;20053;-84
2023/12/18 06:51:26;;;;;;;19.52;7.97;;;8.50;99.90;;;;;;5176884;27;20034;-84
2023/12/18 06:53:52;;;;;;;26.77;7.30;;;8.50;99.90;;;;;;5158902;27;20094;-84
2023/12/18 06:56:18;;;;;;;19.83;7.03;;;8.80;99.90;;;;;;5141029;27;20053;-85
2023/12/18 06:58:43;;;;;;;24.27;8.00;;;8.70;99.90;;;;;;5158910;27;20031;-84
2023/12/18 07:01:09;;;;;;;29.23;8.38;;;8.40;99.90;;;;;;5176774;27;20546;-84
2023/12/18 07:03:35;;;;;;;24.40;7.80;;;8.50;99.90;;;;;;5158337;27;20509;-84
2023/12/18 07:06:02;;;;;;;21.73;8.02;;;8.50;99.90;;;;;;5157850;27;20064;-84
2023/12/18 07:08:29;;;;;;;26.10;7.70;;;8.50;99.90;;;;;;5158299;27;20129;-85
2023/12/18 07:10:57;;;;;;;19.73;7.72;;;9.10;99.90;;;;;;5177239;27;20056;-85
2023/12/18 07:13:23;;;;;;;23.17;8.48;;;9.20;99.90;;;;;;5177431;27;20044;-84
2023/12/18 07:15:49;;;;;;;25.77;8.25;;;8.50;99.90;;;;;;5177267;27;20338;-85
2023/12/18 07:18:15;;;;;;;23.35;8.23;;;9.20;99.90;;;;;;5157942;27;20039;-84
2023/12/18 07:20:41;;;;;;;28.15;8.38;;;8.90;99.90;;;;;;5176238;27;20066;-85
2023/12/18 07:23:08;;;;;;;28.92;8.07;;;8.80;99.90;;;;;;5140861;27;20050;-84
2023/12/18 07:25:34;;;;;;;28.02;9.45;;;8.70;99.90;;;;;;5176961;27;20042;-84
2023/12/18 07:27:59;;;;;;;21.98;7.90;;;8.50;99.90;;;;;;5158194;27;20523;-85
2023/12/18 07:30:25;;;;;;;22.45;8.02;;;9.10;99.90;;;;;;5158322;27;20046;-85
2023/12/18 07:32:51;;;;;;;36.03;8.88;;;8.50;99.90;;;;;;5157637;27;20126;-85
2023/12/18 07:35:16;;;;;;;24.83;8.80;;;8.50;99.90;;;;;;5158197;27;20378;-86
2023/12/18 07:37:42;;;;;;;19.92;8.68;;;8.50;99.90;;;;;;5176803;27;20090;-85
2023/12/18 07:40:08;;;;;;;23.98;8.65;;;9.30;99.90;;;;;;5156987;27;20045;-84
2023/12/18 07:42:34;;;;;;;26.95;8.90;;;8.50;99.90;;;;;;5176647;27;20049;-85
2023/12/18 07:44:59;;;;;;;29.42;9.45;;;9.10;99.90;;;;;;5176504;27;20505;-86
2023/12/18 07:47:25;;;;;;;20.05;8.07;;;8.50;99.90;;;;;;5140046;27;20034;-86
2023/12/18 07:49:51;;;;;;;22.98;8.93;;;9.10;99.90;;;;;;5140676;27;20050;-84
2023/12/18 07:52:17;;;;;;;33.97;9.70;;;9.00;99.90;;;;;;5140109;27;20041;-84
2023/12/18 07:54:42;;;;;;;28.42;10.05;;;8.50;99.90;;;;;;5157784;27;20034;-84
2023/12/18 07:57:08;;;;;;;23.13;9.63;;;9.10;99.90;;;;;;5157107;27;20094;-85
2023/12/18 07:59:39;;;;;;;25.05;9.63;;;9.20;99.90;;;;;;5157424;27;20402;-85
2023/12/18 08:02:08;;;;;;;23.75;9.80;;;9.20;99.90;;;;;;5157867;27;20038;-84
2023/12/18 08:04:35;;;;;;;23.27;10.15;;;8.50;99.90;;;;;;5175339;27;20088;-85
2023/12/18 08:07:01;;;;;;;28.48;10.25;;;8.70;99.90;;;;;;5157243;27;20046;-85
2023/12/18 08:09:27;;;;;;;35.08;10.38;;;8.50;99.90;;;;;;5157357;27;20069;-85
2023/12/18 08:11:53;;;;;;;28.63;10.90;;;9.10;99.90;;;;;;5175807;27;20466;-85
2023/12/18 08:14:19;;;;;;;24.80;10.68;;;8.80;99.90;;;;;;5175822;27;20060;-85
2023/12/18 08:16:45;;;;;;;20.05;9.85;;;8.60;99.90;;;;;;5157386;27;20125;-85
2023/12/18 08:19:11;;;;;;;29.27;10.13;;;8.60;99.90;;;;;;5156320;27;20038;-85
2023/12/18 08:21:36;;;;;;;26.08;9.57;;;9.30;99.90;;;;;;5157506;27;20045;-86
2023/12/18 08:24:02;;;;;;;24.67;10.00;;;8.80;99.90;;;;;;5176214;27;20431;-84
2023/12/18 08:26:28;;;;;;;29.75;10.38;;;8.60;99.90;;;;;;5156773;27;20038;-85
2023/12/18 08:28:54;;;;;;;26.00;9.52;;;8.60;99.90;;;;;;5139319;27;20316;-84
2023/12/18 08:31:20;;;;;;;30.70;9.65;;;8.60;99.90;;;;;;5175942;27;20534;-85
2023/12/18 08:33:45;;;;;;;34.50;10.90;;;9.00;99.90;;;;;;5139789;27;20053;-84
2023/12/18 08:36:11;;;;;;;33.22;10.93;;;8.60;99.90;;;;;;5156911;27;20080;-84
2023/12/18 08:38:36;;;;;;;30.77;10.50;;;8.90;99.90;;;;;;5156461;27;20054;-85
2023/12/18 08:41:02;;;;;;;36.22;10.65;;;8.70;99.90;;;;;;5156852;27;20065;-85
2023/12/18 08:43:28;;;;;;;32.20;10.18;;;8.70;99.90;;;;;;5139483;27;20038;-85
2023/12/18 08:45:54;;;;;;;31.30;10.07;;;9.40;99.90;;;;;;5156816;27;20048;-85
2023/12/18 08:48:19;;;;;;;23.88;9.48;;;8.90;99.90;;;;;;5175302;27;20069;-84
2023/12/18 08:50:45;;;;;;;29.98;10.20;;;9.30;99.90;;;;;;5175490;27;20034;-84
2023/12/18 08:53:11;;;;;;;30.73;11.43;;;8.70;99.90;;;;;;5139559;27;20519;-84
2023/12/18 08:55:39;;;;;;;29.67;11.40;;;9.20;99.90;;;;;;5175359;27;20390;-85
2023/12/18 08:58:08;;;;;;;29.02;11.70;;;8.70;99.90;;;;;;5173630;27;20049;-84
2023/12/18 09:00:35;;;;;;;39.08;11.30;;;9.30;99.90;;;;;;5156438;27;20421;-85
2023/12/18 09:03:01;;;;;;;32.72;11.57;;;9.30;99.90;;;;;;5156089;27;20038;-83
2023/12/18 09:05:28;;;;;;;32.22;11.15;;;8.70;99.90;;;;;;5139235;27;20110;-84
2023/12/18 09:07:54;;;;;;;28.17;10.02;;;8.70;99.90;;;;;;5175053;27;20408;-84
2023/12/18 09:10:22;;;;;;;60.75;13.80;;;9.00;99.90;;;;;;5155656;27;20038;-84
2023/12/18 09:12:48;;;;;;;21.90;9.85;;;8.90;99.90;;;;;;5156317;27;20069;-83
2023/12/18 09:15:14;;;;;;;31.17;10.65;;;8.80;99.90;;;;;;5137293;27;20132;-83
2023/12/18 09:17:40;;;;;;;30.38;10.88;;;8.80;99.90;;;;;;5156197;27;20121;-84
2023/12/18 09:20:06;;;;;;;25.52;10.82;;;8.80;99.90;;;;;;5156523;27;20042;-84
2023/12/18 09:22:32;;;;;;;31.33;11.25;;;8.80;99.90;;;;;;5155720;27;20065;-84
2023/12/18 09:24:57;;;;;;;27.42;10.13;;;8.80;99.90;;;;;;5156252;27;20498;-84
2023/12/18 09:27:23;;;;;;;33.38;11.00;;;9.40;99.90;;;;;;5174112;27;20397;-84
2023/12/18 09:29:49;;;;;;;31.00;11.68;;;8.90;99.90;;;;;;5176184;27;20039;-84
2023/12/18 09:32:15;;;;;;;24.58;10.40;;;9.20;99.90;;;;;;5160651;27;20132;-83
2023/12/18 09:34:40;;;;;;;32.55;10.15;;;8.90;99.90;;;;;;5178726;27;20038;-84
2023/12/18 09:37:06;;;;;;;33.70;10.75;;;8.90;99.90;;;;;;5160580;27;20106;-84
2023/12/18 09:39:32;;;;;;;30.88;10.68;;;9.60;99.90;;;;;;5160316;27;20042;-83
2023/12/18 09:42:02;;;;;;;33.08;10.48;;;9.00;99.90;;;;;;5143024;27;20409;-83
2023/12/18 09:44:31;;;;;;;33.17;10.88;;;8.90;99.90;;;;;;5160080;27;20064;-84
2023/12/18 09:46:58;;;;;;;21.92;9.23;;;9.00;99.90;;;;;;5178875;27;20398;-84
2023/12/18 09:49:24;;;;;;;27.00;10.80;;;9.00;99.90;;;;;;5159841;27;20512;-84
2023/12/18 09:51:53;;;;;;;38.05;10.30;;;9.10;99.90;;;;;;5160303;27;20390;-84
2023/12/18 09:54:20;;;;;;;26.50;9.85;;;9.40;99.90;;;;;;5160282;27;20436;-84
2023/12/18 09:56:48;;;;;;;29.48;10.27;;;9.00;99.90;;;;;;5159663;27;20495;-84
2023/12/18 09:59:17;;;;;;;28.63;10.73;;;9.40;99.90;;;;;;5159258;27;20053;-84
2023/12/18 10:01:45;;;;;;;29.45;9.95;;;9.10;99.90;;;;;;5159341;27;20129;-84
2023/12/18 10:04:12;;;;;;;32.38;10.88;;;9.00;99.90;;;;;;5160312;27;20049;-84
2023/12/18 10:06:38;;;;;;;38.83;11.02;;;9.20;99.90;;;;;;5159914;27;20038;-84
2023/12/18 10:09:12;;;;;;;26.83;10.40;;;9.20;99.90;;;;;;5142165;27;20049;-83
2023/12/18 10:11:38;;;;;;;29.83;10.30;;;9.30;99.90;;;;;;5159332;27;20136;-85
2023/12/18 10:14:04;;;;;;;33.88;10.45;;;9.40;99.90;;;;;;5159093;27;20124;-83
2023/12/18 10:16:32;;;;;;;32.33;10.80;;;9.10;99.90;;;;;;5178197;27;20050;-84
2023/12/18 10:18:58;;;;;;;32.63;10.90;;;9.40;99.90;;;;;;5177802;27;20038;-83
2023/12/18 10:21:24;;;;;;;27.45;10.07;;;9.90;99.90;;;;;;5177693;27;20120;-84
2023/12/18 10:23:53;;;;;;;30.60;10.55;;;9.10;99.90;;;;;;5159546;27;20168;-83
2023/12/18 10:26:19;;;;;;;32.10;10.80;;;9.30;99.90;;;;;;5142142;27;20432;-84
2023/12/18 10:28:45;;;;;;;31.15;10.05;;;9.20;99.90;;;;;;5159281;27;20042;-83
2023/12/18 10:31:11;;;;;;;35.33;11.73;;;9.60;99.90;;;;;;5159015;27;20046;-84
2023/12/18 10:33:38;;;;;;;31.65;11.27;;;9.20;99.90;;;;;;5177876;27;20084;-84
2023/12/18 10:36:08;;;;;;;28.38;10.75;;;9.20;99.90;;;;;;5158387;27;20073;-85
2023/12/18 10:38:36;;;;;;;36.08;10.68;;;9.20;99.90;;;;;;5139764;27;20050;-84
2023/12/18 10:41:03;;;;;;;37.03;11.63;;;9.90;99.90;;;;;;5137428;27;20047;-84
2023/12/18 10:43:31;;;;;;;29.73;10.75;;;9.20;99.90;;;;;;5138248;27;20039;-85
2023/12/18 10:45:57;;;;;;;33.67;10.73;;;9.20;99.90;;;;;;5138474;27;20050;-84
2023/12/18 10:48:24;;;;;;;32.00;10.27;;;9.70;99.90;;;;;;5156521;27;20411;-85
2023/12/18 10:50:54;;;;;;;26.77;11.70;;;9.30;99.90;;;;;;5141999;27;20034;-83
2023/12/18 10:53:29;;;;;;;25.58;10.25;;;9.70;99.90;;;;;;5158687;27;20550;-85
2023/12/18 10:55:58;;;;;;;27.23;11.05;;;9.30;99.90;;;;;;5141197;27;20052;-85
2023/12/18 10:58:23;;;;;;;34.10;11.82;;;9.70;99.90;;;;;;5140493;27;20046;-85
2023/12/18 11:00:51;;;;;;;30.40;11.35;;;9.60;99.90;;;;;;5157836;27;20050;-85
2023/12/18 11:03:18;;;;;;;25.35;11.07;;;9.50;99.90;;;;;;5158021;27;20038;-85
2023/12/18 11:05:46;;;;;;;32.78;10.95;;;9.90;99.90;;;;;;5158394;27;20050;-85
2023/12/18 11:08:12;;;;;;;34.00;11.13;;;9.20;99.90;;;;;;5177157;27;20472;-85
2023/12/18 11:10:38;;;;;;;24.00;11.30;;;9.20;99.90;;;;;;5158329;27;20088;-84
2023/12/18 11:13:26;;;;;;;29.45;11.00;;;9.60;99.90;;;;;;5140779;27;20034;-84
2023/12/18 11:16:28;;;;;;;30.65;12.40;;;9.30;99.90;;;;;;5158411;27;20095;-85
2023/12/18 11:19:19;;;;;;;29.08;10.48;;;9.20;99.90;;;;;;5157435;27;20130;-83
2023/12/18 11:21:49;;;;;;;35.05;12.05;;;9.20;99.90;;;;;;5157535;27;20042;-84
2023/12/18 11:24:16;;;;;;;31.10;11.80;;;9.20;99.90;;;;;;5176767;27;20478;-84
2023/12/18 11:26:45;;;;;;;22.75;12.05;;;9.20;99.90;;;;;;5157769;27;20038;-85
2023/12/18 11:29:42;;;;;;;40.38;12.30;;;9.30;99.90;;;;;;5176769;27;20046;-86
2023/12/18 11:32:11;;;;;;;29.25;12.65;;;9.20;99.90;;;;;;5176883;27;20134;-85
2023/12/18 11:34:40;;;;;;;30.20;12.13;;;9.20;99.90;;;;;;5158396;27;20049;-84
2023/12/18 11:37:11;;;;;;;32.33;12.80;;;9.70;99.90;;;;;;5176674;27;20148;-85
2023/12/18 11:39:39;;;;;;;35.63;12.70;;;10.00;99.90;;;;;;5158018;27;20042;-84
2023/12/18 11:42:07;;;;;;;29.23;12.85;;;9.50;99.90;;;;;;5176270;27;20479;-85
2023/12/18 11:44:35;;;;;;;29.20;12.10;;;9.80;99.90;;;;;;5140527;27;20133;-85
2023/12/18 11:47:01;;;;;;;34.78;13.75;;;9.80;99.90;;;;;;5176659;27;20355;-84
2023/12/18 11:49:27;;;;;;;37.00;13.35;;;9.20;99.90;;;;;;5140391;27;20494;-84
2023/12/18 11:51:53;;;;;;;31.85;12.55;;;9.70;99.90;;;;;;5176164;27;20049;-84
2023/12/18 11:54:25;;;;;;;30.75;13.20;;;9.60;99.90;;;;;;5157220;27;20042;-85
2023/12/18 11:56:51;;;;;;;29.70;12.32;;;9.30;99.90;;;;;;5175919;27;20046;-84
2023/12/18 11:59:21;;;;;;;25.63;13.18;;;9.40;99.90;;;;;;5175962;27;20038;-84
2023/12/18 12:01:50;;;;;;;37.17;12.52;;;9.30;99.90;;;;;;5157500;27;20046;-85
2023/12/18 12:04:19;;;;;;;37.20;12.77;;;10.00;99.90;;;;;;5157457;27;20046;-84
2023/12/18 12:06:46;;;;;;;30.70;12.00;;;9.30;99.90;;;;;;5175674;27;20117;-84
2023/12/18 12:09:12;;;;;;;31.65;12.57;;;9.30;99.90;;;;;;5175699;27;20050;-84
2023/12/18 12:11:38;;;;;;;32.38;13.15;;;9.30;99.90;;;;;;5157432;27;20103;-84
2023/12/18 12:14:03;;;;;;;33.00;12.65;;;9.30;99.90;;;;;;5157048;27;20408;-83
2023/12/18 12:16:29;;;;;;;34.97;12.77;;;9.30;99.90;;;;;;5139729;27;20129;-83
2023/12/18 12:18:55;;;;;;;27.02;12.50;;;9.90;99.90;;;;;;5156736;27;20042;-83
2023/12/18 12:21:21;;;;;;;32.20;12.60;;;9.40;99.90;;;;;;5156487;27;20074;-83
2023/12/18 12:23:48;;;;;;;31.02;11.45;;;9.30;99.90;;;;;;5156126;27;20398;-84
2023/12/18 12:26:18;;;;;;;26.02;13.05;;;9.40;99.90;;;;;;5175015;27;20038;-85
2023/12/18 12:28:43;;;;;;;33.03;12.75;;;9.80;99.90;;;;;;5156556;27;20050;-84
2023/12/18 12:31:09;;;;;;;24.90;12.10;;;9.90;99.90;;;;;;5175615;27;20053;-84
2023/12/18 12:33:42;;;;;;;28.15;12.15;;;9.40;99.90;;;;;;5139513;27;20050;-84
2023/12/18 12:36:09;;;;;;;29.20;12.23;;;9.80;99.90;;;;;;5156809;27;20077;-83
2023/12/18 12:38:39;;;;;;;25.80;11.13;;;9.40;99.90;;;;;;5157094;27;20080;-83